sensor_id;sensor_type;location;lat;lon;timestamp;P1;durP1;ratioP1;P2;durP2;ratioP2
32810;SDS011;65470;47.324;8.548;2023-03-01T00:01:45;34.28;;;26.83;;
32810;SDS011;65470;47.324;8.548;2023-03-01T00:04:10;40.05;;;29.05;;
32810;SDS011;65470;47.324;8.548;2023-03-01T00:06:36;35.80;;;26.42;;
32810;SDS011;65470;47.324;8.548;2023-03-01T00:09:02;34.10;;;26.48;;
32810;SDS011;65470;47.324;8.548;2023-03-01T00:11:29;36.65;;;27.67;;
32810;SDS011;65470;47.324;8.548;2023-03-01T00:13:57;35.58;;;27.55;;
32810;SDS011;65470;47.324;8.548;2023-03-01T00:16:31;32.63;;;25.98;;
32810;SDS011;65470;47.324;8.548;2023-03-01T00:18:59;35.30;;;27.27;;
32810;SDS011;65470;47.324;8.548;2023-03-01T00:21:25;34.83;;;26.38;;
32810;SDS011;65470;47.324;8.548;2023-03-01T00:23:51;32.35;;;25.75;;
32810;SDS011;65470;47.324;8.548;2023-03-01T00:26:18;33.58;;;25.98;;
32810;SDS011;65470;47.324;8.548;2023-03-01T00:28:44;36.67;;;27.20;;
32810;SDS011;65470;47.324;8.548;2023-03-01T00:31:15;35.20;;;26.33;;
32810;SDS011;65470;47.324;8.548;2023-03-01T00:33:42;32.00;;;25.58;;
32810;SDS011;65470;47.324;8.548;2023-03-01T00:36:09;37.33;;;27.25;;
32810;SDS011;65470;47.324;8.548;2023-03-01T00:38:36;33.78;;;25.40;;
32810;SDS011;65470;47.324;8.548;2023-03-01T00:41:06;34.03;;;26.33;;
32810;SDS011;65470;47.324;8.548;2023-03-01T00:43:33;32.45;;;25.30;;
32810;SDS011;65470;47.324;8.548;2023-03-01T00:46:11;37.63;;;27.45;;
32810;SDS011;65470;47.324;8.548;2023-03-01T00:48:39;35.47;;;26.80;;
32810;SDS011;65470;47.324;8.548;2023-03-01T00:51:09;35.50;;;27.60;;
32810;SDS011;65470;47.324;8.548;2023-03-01T00:53:37;39.80;;;27.95;;
32810;SDS011;65470;47.324;8.548;2023-03-01T00:56:03;36.83;;;27.23;;
32810;SDS011;65470;47.324;8.548;2023-03-01T00:58:30;39.90;;;27.20;;
32810;SDS011;65470;47.324;8.548;2023-03-01T01:00:56;39.33;;;26.40;;
32810;SDS011;65470;47.324;8.548;2023-03-01T01:03:22;35.25;;;25.88;;
32810;SDS011;65470;47.324;8.548;2023-03-01T01:05:49;36.00;;;27.20;;
32810;SDS011;65470;47.324;8.548;2023-03-01T01:08:19;38.58;;;26.90;;
32810;SDS011;65470;47.324;8.548;2023-03-01T01:10:45;37.85;;;26.63;;
32810;SDS011;65470;47.324;8.548;2023-03-01T01:13:11;34.65;;;26.98;;
32810;SDS011;65470;47.324;8.548;2023-03-01T01:15:38;37.83;;;27.45;;
32810;SDS011;65470;47.324;8.548;2023-03-01T01:18:04;38.53;;;28.60;;
32810;SDS011;65470;47.324;8.548;2023-03-01T01:20:30;37.28;;;27.27;;
32810;SDS011;65470;47.324;8.548;2023-03-01T01:22:55;37.70;;;27.65;;
32810;SDS011;65470;47.324;8.548;2023-03-01T01:25:21;35.25;;;25.95;;
32810;SDS011;65470;47.324;8.548;2023-03-01T01:27:49;36.70;;;27.33;;
32810;SDS011;65470;47.324;8.548;2023-03-01T01:30:15;36.10;;;27.70;;
32810;SDS011;65470;47.324;8.548;2023-03-01T01:32:41;39.92;;;29.60;;
32810;SDS011;65470;47.324;8.548;2023-03-01T01:35:07;40.08;;;29.15;;
32810;SDS011;65470;47.324;8.548;2023-03-01T01:37:34;34.88;;;28.00;;
32810;SDS011;65470;47.324;8.548;2023-03-01T01:40:00;36.58;;;27.00;;
32810;SDS011;65470;47.324;8.548;2023-03-01T01:42:29;37.65;;;28.48;;
32810;SDS011;65470;47.324;8.548;2023-03-01T01:45:37;34.17;;;26.83;;
32810;SDS011;65470;47.324;8.548;2023-03-01T01:47:55;40.22;;;29.20;;
32810;SDS011;65470;47.324;8.548;2023-03-01T01:50:27;37.85;;;28.45;;
32810;SDS011;65470;47.324;8.548;2023-03-01T01:53:02;38.53;;;28.63;;
32810;SDS011;65470;47.324;8.548;2023-03-01T01:55:33;37.60;;;29.00;;
32810;SDS011;65470;47.324;8.548;2023-03-01T01:58:02;39.25;;;28.85;;
32810;SDS011;65470;47.324;8.548;2023-03-01T02:00:31;40.08;;;28.98;;
32810;SDS011;65470;47.324;8.548;2023-03-01T02:02:58;39.13;;;29.60;;
32810;SDS011;65470;47.324;8.548;2023-03-01T02:05:43;39.72;;;29.45;;
32810;SDS011;65470;47.324;8.548;2023-03-01T02:08:29;42.13;;;28.73;;
32810;SDS011;65470;47.324;8.548;2023-03-01T02:10:58;39.22;;;28.67;;
32810;SDS011;65470;47.324;8.548;2023-03-01T02:13:26;38.13;;;28.73;;
32810;SDS011;65470;47.324;8.548;2023-03-01T02:15:52;39.78;;;27.67;;
32810;SDS011;65470;47.324;8.548;2023-03-01T02:18:18;37.58;;;28.77;;
32810;SDS011;65470;47.324;8.548;2023-03-01T02:23:15;37.83;;;29.60;;
32810;SDS011;65470;47.324;8.548;2023-03-01T02:28:32;37.22;;;27.95;;
32810;SDS011;65470;47.324;8.548;2023-03-01T02:31:00;35.50;;;27.90;;
32810;SDS011;65470;47.324;8.548;2023-03-01T02:33:45;39.28;;;28.65;;
32810;SDS011;65470;47.324;8.548;2023-03-01T02:36:20;38.30;;;27.25;;
32810;SDS011;65470;47.324;8.548;2023-03-01T02:38:49;41.75;;;28.98;;
32810;SDS011;65470;47.324;8.548;2023-03-01T02:41:18;42.80;;;29.50;;
32810;SDS011;65470;47.324;8.548;2023-03-01T02:43:45;39.80;;;28.42;;
32810;SDS011;65470;47.324;8.548;2023-03-01T02:46:18;41.03;;;29.05;;
32810;SDS011;65470;47.324;8.548;2023-03-01T02:48:50;40.13;;;29.27;;
32810;SDS011;65470;47.324;8.548;2023-03-01T02:51:31;38.85;;;28.17;;
32810;SDS011;65470;47.324;8.548;2023-03-01T02:54:21;37.85;;;27.45;;
32810;SDS011;65470;47.324;8.548;2023-03-01T02:56:55;40.30;;;28.75;;
32810;SDS011;65470;47.324;8.548;2023-03-01T02:59:22;39.28;;;29.05;;
32810;SDS011;65470;47.324;8.548;2023-03-01T03:05:23;40.83;;;28.48;;
32810;SDS011;65470;47.324;8.548;2023-03-01T03:07:50;39.45;;;28.92;;
32810;SDS011;65470;47.324;8.548;2023-03-01T03:10:23;39.45;;;28.58;;
32810;SDS011;65470;47.324;8.548;2023-03-01T03:12:55;43.08;;;30.50;;
32810;SDS011;65470;47.324;8.548;2023-03-01T03:15:26;38.20;;;28.13;;
32810;SDS011;65470;47.324;8.548;2023-03-01T03:17:53;40.35;;;29.15;;
32810;SDS011;65470;47.324;8.548;2023-03-01T03:20:20;40.35;;;29.33;;
32810;SDS011;65470;47.324;8.548;2023-03-01T03:22:49;39.50;;;28.40;;
32810;SDS011;65470;47.324;8.548;2023-03-01T03:25:17;37.15;;;27.83;;
32810;SDS011;65470;47.324;8.548;2023-03-01T03:27:44;38.72;;;28.45;;
32810;SDS011;65470;47.324;8.548;2023-03-01T03:30:12;38.90;;;28.73;;
32810;SDS011;65470;47.324;8.548;2023-03-01T03:32:43;40.63;;;28.60;;
32810;SDS011;65470;47.324;8.548;2023-03-01T03:35:17;38.45;;;27.45;;
32810;SDS011;65470;47.324;8.548;2023-03-01T03:37:48;38.38;;;27.52;;
32810;SDS011;65470;47.324;8.548;2023-03-01T03:40:34;40.50;;;28.77;;
32810;SDS011;65470;47.324;8.548;2023-03-01T03:43:06;39.35;;;29.25;;
32810;SDS011;65470;47.324;8.548;2023-03-01T03:45:37;36.55;;;28.00;;
32810;SDS011;65470;47.324;8.548;2023-03-01T03:48:03;38.50;;;27.85;;
32810;SDS011;65470;47.324;8.548;2023-03-01T03:50:31;36.25;;;27.77;;
32810;SDS011;65470;47.324;8.548;2023-03-01T03:52:57;37.95;;;28.67;;
32810;SDS011;65470;47.324;8.548;2023-03-01T03:55:25;38.17;;;28.40;;
32810;SDS011;65470;47.324;8.548;2023-03-01T03:57:56;37.17;;;27.23;;
32810;SDS011;65470;47.324;8.548;2023-03-01T04:00:23;36.42;;;27.42;;
32810;SDS011;65470;47.324;8.548;2023-03-01T04:02:49;36.58;;;27.55;;
32810;SDS011;65470;47.324;8.548;2023-03-01T04:05:17;38.75;;;29.45;;
32810;SDS011;65470;47.324;8.548;2023-03-01T04:07:44;36.30;;;28.00;;
32810;SDS011;65470;47.324;8.548;2023-03-01T04:10:11;38.70;;;28.45;;
32810;SDS011;65470;47.324;8.548;2023-03-01T04:12:38;41.88;;;29.42;;
32810;SDS011;65470;47.324;8.548;2023-03-01T04:15:05;33.67;;;26.30;;
32810;SDS011;65470;47.324;8.548;2023-03-01T04:17:44;38.25;;;28.25;;
32810;SDS011;65470;47.324;8.548;2023-03-01T04:20:12;36.10;;;27.75;;
32810;SDS011;65470;47.324;8.548;2023-03-01T04:22:42;38.90;;;28.15;;
32810;SDS011;65470;47.324;8.548;2023-03-01T04:25:11;39.53;;;28.40;;
32810;SDS011;65470;47.324;8.548;2023-03-01T04:27:39;36.38;;;27.27;;
32810;SDS011;65470;47.324;8.548;2023-03-01T04:30:05;36.42;;;28.17;;
32810;SDS011;65470;47.324;8.548;2023-03-01T04:32:31;38.15;;;28.02;;
32810;SDS011;65470;47.324;8.548;2023-03-01T04:34:57;36.22;;;28.45;;
32810;SDS011;65470;47.324;8.548;2023-03-01T04:37:23;35.03;;;26.98;;
32810;SDS011;65470;47.324;8.548;2023-03-01T04:39:49;38.17;;;27.40;;
32810;SDS011;65470;47.324;8.548;2023-03-01T04:42:14;41.55;;;30.10;;
32810;SDS011;65470;47.324;8.548;2023-03-01T04:44:41;37.03;;;27.15;;
32810;SDS011;65470;47.324;8.548;2023-03-01T04:47:08;39.55;;;27.95;;
32810;SDS011;65470;47.324;8.548;2023-03-01T04:49:33;38.42;;;28.52;;
32810;SDS011;65470;47.324;8.548;2023-03-01T04:51:59;37.72;;;28.27;;
32810;SDS011;65470;47.324;8.548;2023-03-01T04:54:27;38.15;;;28.23;;
32810;SDS011;65470;47.324;8.548;2023-03-01T04:56:53;37.78;;;27.80;;
32810;SDS011;65470;47.324;8.548;2023-03-01T04:59:20;36.60;;;27.88;;
32810;SDS011;65470;47.324;8.548;2023-03-01T05:01:47;36.45;;;27.33;;
32810;SDS011;65470;47.324;8.548;2023-03-01T05:04:17;40.03;;;29.73;;
32810;SDS011;65470;47.324;8.548;2023-03-01T05:06:43;37.00;;;27.80;;
32810;SDS011;65470;47.324;8.548;2023-03-01T05:09:09;38.00;;;28.30;;
32810;SDS011;65470;47.324;8.548;2023-03-01T05:11:36;37.53;;;28.02;;
32810;SDS011;65470;47.324;8.548;2023-03-01T05:14:02;37.08;;;27.10;;
32810;SDS011;65470;47.324;8.548;2023-03-01T05:16:29;41.30;;;28.23;;
32810;SDS011;65470;47.324;8.548;2023-03-01T05:18:56;40.92;;;29.55;;
32810;SDS011;65470;47.324;8.548;2023-03-01T05:21:22;37.42;;;27.27;;
32810;SDS011;65470;47.324;8.548;2023-03-01T05:23:48;37.72;;;28.45;;
32810;SDS011;65470;47.324;8.548;2023-03-01T05:26:14;39.05;;;28.63;;
32810;SDS011;65470;47.324;8.548;2023-03-01T05:28:40;38.22;;;28.50;;
32810;SDS011;65470;47.324;8.548;2023-03-01T05:31:06;41.13;;;28.95;;
32810;SDS011;65470;47.324;8.548;2023-03-01T05:33:35;37.42;;;27.92;;
32810;SDS011;65470;47.324;8.548;2023-03-01T05:36:05;39.70;;;28.13;;
32810;SDS011;65470;47.324;8.548;2023-03-01T05:38:32;39.13;;;28.80;;
32810;SDS011;65470;47.324;8.548;2023-03-01T05:40:58;40.15;;;29.63;;
32810;SDS011;65470;47.324;8.548;2023-03-01T05:43:24;38.08;;;28.67;;
32810;SDS011;65470;47.324;8.548;2023-03-01T05:45:49;39.80;;;28.85;;
32810;SDS011;65470;47.324;8.548;2023-03-01T05:48:15;37.60;;;27.25;;
32810;SDS011;65470;47.324;8.548;2023-03-01T05:50:42;39.40;;;28.15;;
32810;SDS011;65470;47.324;8.548;2023-03-01T05:53:10;38.70;;;28.08;;
32810;SDS011;65470;47.324;8.548;2023-03-01T05:55:37;39.60;;;28.25;;
32810;SDS011;65470;47.324;8.548;2023-03-01T05:58:05;40.15;;;30.23;;
32810;SDS011;65470;47.324;8.548;2023-03-01T06:00:32;38.42;;;27.55;;
32810;SDS011;65470;47.324;8.548;2023-03-01T06:02:59;39.22;;;28.65;;
32810;SDS011;65470;47.324;8.548;2023-03-01T06:05:25;40.58;;;28.63;;
32810;SDS011;65470;47.324;8.548;2023-03-01T06:07:52;40.25;;;29.42;;
32810;SDS011;65470;47.324;8.548;2023-03-01T06:10:18;39.83;;;27.90;;
32810;SDS011;65470;47.324;8.548;2023-03-01T06:12:45;39.17;;;28.48;;
32810;SDS011;65470;47.324;8.548;2023-03-01T06:15:11;38.92;;;27.77;;
32810;SDS011;65470;47.324;8.548;2023-03-01T06:17:40;41.63;;;30.17;;
32810;SDS011;65470;47.324;8.548;2023-03-01T06:20:08;41.10;;;29.15;;
32810;SDS011;65470;47.324;8.548;2023-03-01T06:22:40;38.20;;;27.45;;
32810;SDS011;65470;47.324;8.548;2023-03-01T06:25:06;39.40;;;28.33;;
32810;SDS011;65470;47.324;8.548;2023-03-01T06:27:33;40.35;;;28.23;;
32810;SDS011;65470;47.324;8.548;2023-03-01T06:29:59;36.67;;;27.08;;
32810;SDS011;65470;47.324;8.548;2023-03-01T06:32:25;39.17;;;29.02;;
32810;SDS011;65470;47.324;8.548;2023-03-01T06:34:50;40.67;;;28.50;;
32810;SDS011;65470;47.324;8.548;2023-03-01T06:37:16;40.22;;;28.35;;
32810;SDS011;65470;47.324;8.548;2023-03-01T06:39:42;42.50;;;29.35;;
32810;SDS011;65470;47.324;8.548;2023-03-01T06:42:08;43.28;;;28.95;;
32810;SDS011;65470;47.324;8.548;2023-03-01T06:44:37;45.00;;;30.10;;
32810;SDS011;65470;47.324;8.548;2023-03-01T06:47:03;45.15;;;29.70;;
32810;SDS011;65470;47.324;8.548;2023-03-01T06:49:29;42.88;;;29.13;;
32810;SDS011;65470;47.324;8.548;2023-03-01T06:51:55;41.40;;;29.35;;
32810;SDS011;65470;47.324;8.548;2023-03-01T06:54:21;45.88;;;30.60;;
32810;SDS011;65470;47.324;8.548;2023-03-01T06:56:47;41.53;;;28.08;;
32810;SDS011;65470;47.324;8.548;2023-03-01T06:59:14;49.10;;;29.45;;
32810;SDS011;65470;47.324;8.548;2023-03-01T07:01:40;42.10;;;28.10;;
32810;SDS011;65470;47.324;8.548;2023-03-01T07:04:06;42.65;;;29.23;;
32810;SDS011;65470;47.324;8.548;2023-03-01T07:06:32;56.10;;;29.77;;
32810;SDS011;65470;47.324;8.548;2023-03-01T07:08:58;40.63;;;28.88;;
32810;SDS011;65470;47.324;8.548;2023-03-01T07:11:24;55.38;;;30.80;;
32810;SDS011;65470;47.324;8.548;2023-03-01T07:13:49;57.67;;;29.08;;
32810;SDS011;65470;47.324;8.548;2023-03-01T07:16:15;46.67;;;30.80;;
32810;SDS011;65470;47.324;8.548;2023-03-01T07:18:41;39.13;;;28.15;;
32810;SDS011;65470;47.324;8.548;2023-03-01T07:21:07;48.60;;;28.92;;
32810;SDS011;65470;47.324;8.548;2023-03-01T07:23:34;48.58;;;31.10;;
32810;SDS011;65470;47.324;8.548;2023-03-01T07:26:00;45.95;;;29.02;;
32810;SDS011;65470;47.324;8.548;2023-03-01T07:28:26;42.67;;;30.08;;
32810;SDS011;65470;47.324;8.548;2023-03-01T07:30:53;45.22;;;29.73;;
32810;SDS011;65470;47.324;8.548;2023-03-01T07:33:19;45.90;;;30.30;;
32810;SDS011;65470;47.324;8.548;2023-03-01T07:35:45;41.35;;;27.38;;
32810;SDS011;65470;47.324;8.548;2023-03-01T07:38:10;47.58;;;27.58;;
32810;SDS011;65470;47.324;8.548;2023-03-01T07:40:36;45.78;;;30.45;;
32810;SDS011;65470;47.324;8.548;2023-03-01T07:43:01;42.28;;;29.77;;
32810;SDS011;65470;47.324;8.548;2023-03-01T07:45:27;42.38;;;28.70;;
32810;SDS011;65470;47.324;8.548;2023-03-01T07:47:54;45.03;;;29.65;;
32810;SDS011;65470;47.324;8.548;2023-03-01T07:50:20;42.10;;;27.63;;
32810;SDS011;65470;47.324;8.548;2023-03-01T07:52:47;41.85;;;29.23;;
32810;SDS011;65470;47.324;8.548;2023-03-01T07:55:14;41.28;;;28.40;;
32810;SDS011;65470;47.324;8.548;2023-03-01T07:57:41;43.00;;;28.83;;
32810;SDS011;65470;47.324;8.548;2023-03-01T08:00:07;43.55;;;27.67;;
32810;SDS011;65470;47.324;8.548;2023-03-01T08:02:35;38.20;;;27.33;;
32810;SDS011;65470;47.324;8.548;2023-03-01T08:05:00;40.80;;;28.98;;
32810;SDS011;65470;47.324;8.548;2023-03-01T08:07:26;40.40;;;28.00;;
32810;SDS011;65470;47.324;8.548;2023-03-01T08:09:51;38.67;;;28.00;;
32810;SDS011;65470;47.324;8.548;2023-03-01T08:12:17;44.50;;;29.10;;
32810;SDS011;65470;47.324;8.548;2023-03-01T08:14:43;39.47;;;28.55;;
32810;SDS011;65470;47.324;8.548;2023-03-01T08:17:08;41.08;;;27.98;;
32810;SDS011;65470;47.324;8.548;2023-03-01T08:19:34;42.55;;;28.00;;
32810;SDS011;65470;47.324;8.548;2023-03-01T08:22:02;39.28;;;27.35;;
32810;SDS011;65470;47.324;8.548;2023-03-01T08:24:29;43.45;;;28.85;;
32810;SDS011;65470;47.324;8.548;2023-03-01T08:26:55;43.53;;;28.55;;
32810;SDS011;65470;47.324;8.548;2023-03-01T08:29:21;41.00;;;27.95;;
32810;SDS011;65470;47.324;8.548;2023-03-01T08:31:47;47.97;;;29.15;;
32810;SDS011;65470;47.324;8.548;2023-03-01T08:34:14;42.95;;;27.05;;
32810;SDS011;65470;47.324;8.548;2023-03-01T08:36:41;41.50;;;28.20;;
32810;SDS011;65470;47.324;8.548;2023-03-01T08:39:09;41.75;;;28.52;;
32810;SDS011;65470;47.324;8.548;2023-03-01T08:41:37;46.00;;;29.77;;
32810;SDS011;65470;47.324;8.548;2023-03-01T08:44:03;38.85;;;27.40;;
32810;SDS011;65470;47.324;8.548;2023-03-01T08:46:30;44.33;;;28.13;;
32810;SDS011;65470;47.324;8.548;2023-03-01T08:48:57;42.90;;;28.58;;
32810;SDS011;65470;47.324;8.548;2023-03-01T08:51:23;42.45;;;27.58;;
32810;SDS011;65470;47.324;8.548;2023-03-01T08:53:50;42.22;;;28.27;;
32810;SDS011;65470;47.324;8.548;2023-03-01T08:56:16;38.35;;;27.50;;
32810;SDS011;65470;47.324;8.548;2023-03-01T08:58:44;42.78;;;28.55;;
32810;SDS011;65470;47.324;8.548;2023-03-01T09:01:14;47.60;;;29.33;;
32810;SDS011;65470;47.324;8.548;2023-03-01T09:03:41;40.70;;;27.95;;
32810;SDS011;65470;47.324;8.548;2023-03-01T09:06:07;40.53;;;28.35;;
32810;SDS011;65470;47.324;8.548;2023-03-01T09:08:37;44.67;;;28.27;;
32810;SDS011;65470;47.324;8.548;2023-03-01T09:11:05;42.45;;;27.92;;
32810;SDS011;65470;47.324;8.548;2023-03-01T09:13:33;43.08;;;28.75;;
32810;SDS011;65470;47.324;8.548;2023-03-01T09:16:00;36.90;;;27.20;;
32810;SDS011;65470;47.324;8.548;2023-03-01T09:18:27;39.63;;;26.27;;
32810;SDS011;65470;47.324;8.548;2023-03-01T09:20:53;42.75;;;27.77;;
32810;SDS011;65470;47.324;8.548;2023-03-01T09:23:25;41.25;;;28.38;;
32810;SDS011;65470;47.324;8.548;2023-03-01T09:25:52;41.58;;;26.90;;
32810;SDS011;65470;47.324;8.548;2023-03-01T09:28:17;40.72;;;28.02;;
32810;SDS011;65470;47.324;8.548;2023-03-01T09:30:43;42.22;;;28.95;;
32810;SDS011;65470;47.324;8.548;2023-03-01T09:33:08;36.47;;;27.30;;
32810;SDS011;65470;47.324;8.548;2023-03-01T09:35:39;38.22;;;27.30;;
32810;SDS011;65470;47.324;8.548;2023-03-01T09:38:10;37.03;;;27.35;;
32810;SDS011;65470;47.324;8.548;2023-03-01T09:40:41;39.22;;;26.88;;
32810;SDS011;65470;47.324;8.548;2023-03-01T09:43:11;51.53;;;27.35;;
32810;SDS011;65470;47.324;8.548;2023-03-01T09:45:52;38.13;;;26.48;;
32810;SDS011;65470;47.324;8.548;2023-03-01T09:48:23;39.83;;;26.75;;
32810;SDS011;65470;47.324;8.548;2023-03-01T09:50:51;42.53;;;28.67;;
32810;SDS011;65470;47.324;8.548;2023-03-01T09:53:18;40.58;;;28.00;;
32810;SDS011;65470;47.324;8.548;2023-03-01T09:55:59;35.92;;;26.02;;
32810;SDS011;65470;47.324;8.548;2023-03-01T09:58:41;39.75;;;27.20;;
32810;SDS011;65470;47.324;8.548;2023-03-01T10:01:18;37.17;;;26.77;;
32810;SDS011;65470;47.324;8.548;2023-03-01T10:10:32;41.17;;;26.95;;
32810;SDS011;65470;47.324;8.548;2023-03-01T10:13:05;46.47;;;27.33;;
32810;SDS011;65470;47.324;8.548;2023-03-01T10:15:44;42.13;;;27.48;;
32810;SDS011;65470;47.324;8.548;2023-03-01T10:18:20;39.10;;;26.98;;
32810;SDS011;65470;47.324;8.548;2023-03-01T10:21:30;35.67;;;25.92;;
32810;SDS011;65470;47.324;8.548;2023-03-01T10:23:39;36.08;;;25.15;;
32810;SDS011;65470;47.324;8.548;2023-03-01T10:29:08;36.35;;;25.52;;
32810;SDS011;65470;47.324;8.548;2023-03-01T10:31:37;48.30;;;27.85;;
32810;SDS011;65470;47.324;8.548;2023-03-01T10:34:09;36.40;;;25.25;;
32810;SDS011;65470;47.324;8.548;2023-03-01T10:36:53;42.28;;;26.27;;
32810;SDS011;65470;47.324;8.548;2023-03-01T10:39:25;40.72;;;26.77;;
32810;SDS011;65470;47.324;8.548;2023-03-01T10:41:55;38.05;;;26.30;;
32810;SDS011;65470;47.324;8.548;2023-03-01T10:44:36;35.42;;;25.70;;
32810;SDS011;65470;47.324;8.548;2023-03-01T10:47:05;39.72;;;27.08;;
32810;SDS011;65470;47.324;8.548;2023-03-01T10:49:36;50.80;;;27.88;;
32810;SDS011;65470;47.324;8.548;2023-03-01T10:52:11;36.90;;;25.02;;
32810;SDS011;65470;47.324;8.548;2023-03-01T10:54:49;35.42;;;25.42;;
32810;SDS011;65470;47.324;8.548;2023-03-01T10:57:24;36.55;;;26.20;;
32810;SDS011;65470;47.324;8.548;2023-03-01T11:00:02;45.13;;;26.48;;
32810;SDS011;65470;47.324;8.548;2023-03-01T11:03:02;35.55;;;25.67;;
32810;SDS011;65470;47.324;8.548;2023-03-01T11:05:35;34.35;;;24.67;;
32810;SDS011;65470;47.324;8.548;2023-03-01T11:08:01;31.95;;;24.35;;
32810;SDS011;65470;47.324;8.548;2023-03-01T11:10:32;35.95;;;26.13;;
32810;SDS011;65470;47.324;8.548;2023-03-01T11:13:07;34.35;;;25.75;;
32810;SDS011;65470;47.324;8.548;2023-03-01T11:15:39;37.63;;;26.52;;
32810;SDS011;65470;47.324;8.548;2023-03-01T11:18:04;35.03;;;25.80;;
32810;SDS011;65470;47.324;8.548;2023-03-01T11:20:47;35.63;;;25.35;;
32810;SDS011;65470;47.324;8.548;2023-03-01T11:23:16;36.55;;;26.08;;
32810;SDS011;65470;47.324;8.548;2023-03-01T11:25:54;36.88;;;25.20;;
32810;SDS011;65470;47.324;8.548;2023-03-01T11:28:21;36.70;;;27.00;;
32810;SDS011;65470;47.324;8.548;2023-03-01T11:30:51;43.97;;;27.50;;
32810;SDS011;65470;47.324;8.548;2023-03-01T11:36:27;38.13;;;27.25;;
32810;SDS011;65470;47.324;8.548;2023-03-01T11:44:59;33.00;;;23.35;;
32810;SDS011;65470;47.324;8.548;2023-03-01T11:47:43;36.08;;;25.65;;
32810;SDS011;65470;47.324;8.548;2023-03-01T11:50:17;32.30;;;24.02;;
32810;SDS011;65470;47.324;8.548;2023-03-01T12:03:34;32.75;;;24.55;;
32810;SDS011;65470;47.324;8.548;2023-03-01T12:12:02;41.95;;;25.98;;
32810;SDS011;65470;47.324;8.548;2023-03-01T12:15:04;35.75;;;26.55;;
32810;SDS011;65470;47.324;8.548;2023-03-01T12:25:39;37.90;;;25.50;;
32810;SDS011;65470;47.324;8.548;2023-03-01T12:39:22;35.13;;;26.42;;
32810;SDS011;65470;47.324;8.548;2023-03-01T12:45:16;61.88;;;27.40;;
32810;SDS011;65470;47.324;8.548;2023-03-01T12:50:52;35.92;;;25.38;;
32810;SDS011;65470;47.324;8.548;2023-03-01T12:53:26;36.50;;;25.67;;
32810;SDS011;65470;47.324;8.548;2023-03-01T12:56:05;36.78;;;26.23;;
32810;SDS011;65470;47.324;8.548;2023-03-01T13:07:44;34.50;;;25.63;;
32810;SDS011;65470;47.324;8.548;2023-03-01T13:10:00;37.78;;;25.52;;
32810;SDS011;65470;47.324;8.548;2023-03-01T13:20:16;32.30;;;23.85;;
32810;SDS011;65470;47.324;8.548;2023-03-01T13:22:45;35.55;;;25.92;;
32810;SDS011;65470;47.324;8.548;2023-03-01T13:25:16;34.80;;;25.98;;
32810;SDS011;65470;47.324;8.548;2023-03-01T13:27:45;35.00;;;25.13;;
32810;SDS011;65470;47.324;8.548;2023-03-01T13:35:56;33.03;;;24.70;;
32810;SDS011;65470;47.324;8.548;2023-03-01T13:38:38;37.47;;;25.10;;
32810;SDS011;65470;47.324;8.548;2023-03-01T13:41:17;31.88;;;22.02;;
32810;SDS011;65470;47.324;8.548;2023-03-01T13:44:11;34.28;;;24.98;;
32810;SDS011;65470;47.324;8.548;2023-03-01T13:46:43;35.22;;;25.98;;
32810;SDS011;65470;47.324;8.548;2023-03-01T13:49:11;34.53;;;23.92;;
32810;SDS011;65470;47.324;8.548;2023-03-01T13:51:45;34.10;;;24.73;;
32810;SDS011;65470;47.324;8.548;2023-03-01T13:54:13;32.20;;;24.83;;
32810;SDS011;65470;47.324;8.548;2023-03-01T13:56:40;34.58;;;24.55;;
32810;SDS011;65470;47.324;8.548;2023-03-01T13:59:14;34.38;;;23.63;;
32810;SDS011;65470;47.324;8.548;2023-03-01T14:01:42;34.00;;;25.92;;
32810;SDS011;65470;47.324;8.548;2023-03-01T14:04:27;32.70;;;23.23;;
32810;SDS011;65470;47.324;8.548;2023-03-01T14:07:10;33.90;;;25.13;;
32810;SDS011;65470;47.324;8.548;2023-03-01T14:09:54;32.75;;;24.50;;
32810;SDS011;65470;47.324;8.548;2023-03-01T14:15:39;35.55;;;25.48;;
32810;SDS011;65470;47.324;8.548;2023-03-01T14:20:43;63.50;;;29.48;;
32810;SDS011;65470;47.324;8.548;2023-03-01T14:23:17;39.72;;;28.10;;
32810;SDS011;65470;47.324;8.548;2023-03-01T14:25:49;35.40;;;25.90;;
32810;SDS011;65470;47.324;8.548;2023-03-01T14:28:17;37.38;;;27.80;;
32810;SDS011;65470;47.324;8.548;2023-03-01T14:30:53;37.25;;;28.15;;
32810;SDS011;65470;47.324;8.548;2023-03-01T14:35:59;37.88;;;27.02;;
32810;SDS011;65470;47.324;8.548;2023-03-01T14:38:32;36.67;;;27.23;;
32810;SDS011;65470;47.324;8.548;2023-03-01T14:41:09;39.13;;;27.92;;
32810;SDS011;65470;47.324;8.548;2023-03-01T14:43:53;37.03;;;26.30;;
32810;SDS011;65470;47.324;8.548;2023-03-01T14:46:24;35.10;;;26.45;;
32810;SDS011;65470;47.324;8.548;2023-03-01T14:51:39;36.20;;;25.42;;
32810;SDS011;65470;47.324;8.548;2023-03-01T14:54:41;38.40;;;27.92;;
32810;SDS011;65470;47.324;8.548;2023-03-01T14:57:23;35.40;;;27.42;;
32810;SDS011;65470;47.324;8.548;2023-03-01T14:59:51;40.88;;;27.13;;
32810;SDS011;65470;47.324;8.548;2023-03-01T15:02:20;36.88;;;27.20;;
32810;SDS011;65470;47.324;8.548;2023-03-01T15:04:49;36.90;;;26.48;;
32810;SDS011;65470;47.324;8.548;2023-03-01T15:07:17;39.22;;;27.42;;
32810;SDS011;65470;47.324;8.548;2023-03-01T15:09:44;38.80;;;28.17;;
32810;SDS011;65470;47.324;8.548;2023-03-01T15:14:55;37.95;;;27.73;;
32810;SDS011;65470;47.324;8.548;2023-03-01T15:19:57;39.13;;;27.75;;
32810;SDS011;65470;47.324;8.548;2023-03-01T15:22:24;46.88;;;31.13;;
32810;SDS011;65470;47.324;8.548;2023-03-01T15:24:51;39.90;;;30.25;;
32810;SDS011;65470;47.324;8.548;2023-03-01T15:27:19;39.97;;;28.77;;
32810;SDS011;65470;47.324;8.548;2023-03-01T15:29:50;45.60;;;28.73;;
32810;SDS011;65470;47.324;8.548;2023-03-01T15:32:26;43.38;;;29.67;;
32810;SDS011;65470;47.324;8.548;2023-03-01T15:34:57;41.47;;;30.35;;
32810;SDS011;65470;47.324;8.548;2023-03-01T15:40:18;45.28;;;28.67;;
32810;SDS011;65470;47.324;8.548;2023-03-01T15:42:46;37.50;;;27.55;;
32810;SDS011;65470;47.324;8.548;2023-03-01T15:47:43;43.70;;;30.20;;
32810;SDS011;65470;47.324;8.548;2023-03-01T15:50:26;39.60;;;28.58;;
32810;SDS011;65470;47.324;8.548;2023-03-01T15:52:54;41.83;;;30.05;;
32810;SDS011;65470;47.324;8.548;2023-03-01T15:55:24;41.20;;;30.40;;
32810;SDS011;65470;47.324;8.548;2023-03-01T15:57:58;48.83;;;32.28;;
32810;SDS011;65470;47.324;8.548;2023-03-01T16:00:45;40.58;;;30.02;;
32810;SDS011;65470;47.324;8.548;2023-03-01T16:03:13;46.53;;;30.77;;
32810;SDS011;65470;47.324;8.548;2023-03-01T16:05:46;46.28;;;29.05;;
32810;SDS011;65470;47.324;8.548;2023-03-01T16:08:12;42.13;;;29.58;;
32810;SDS011;65470;47.324;8.548;2023-03-01T16:10:38;38.95;;;28.92;;
32810;SDS011;65470;47.324;8.548;2023-03-01T16:13:05;46.65;;;29.95;;
32810;SDS011;65470;47.324;8.548;2023-03-01T16:15:32;42.67;;;29.17;;
32810;SDS011;65470;47.324;8.548;2023-03-01T16:18:00;43.30;;;29.38;;
32810;SDS011;65470;47.324;8.548;2023-03-01T16:20:27;39.30;;;28.60;;
32810;SDS011;65470;47.324;8.548;2023-03-01T16:22:54;42.70;;;29.45;;
32810;SDS011;65470;47.324;8.548;2023-03-01T16:25:22;42.45;;;29.63;;
32810;SDS011;65470;47.324;8.548;2023-03-01T16:27:49;37.63;;;28.75;;
32810;SDS011;65470;47.324;8.548;2023-03-01T16:30:16;43.00;;;28.95;;